Time;durP1;ratioP1;P1;durP2;ratioP2;P2;SDS_P1;SDS_P2;PMS_P1;PMS_P2;Temp;Humidity;BMP_temperature;BMP_pressure;BME280_temperature;BME280_humidity;BME280_pressure;Samples;Min_cycle;Max_cycle;Signal;HPM_P1;HPM_P2
2022/12/20 00:02:42;;;;;;;9.77;3.88;;;;;;;-3.93;100.00;101904.72;6375050;27;20098;-72
2022/12/20 00:05:43;;;;;;;18.08;4.53;;;;;;;-3.91;100.00;101903.09;6375252;27;20100;-73
2022/12/20 00:08:44;;;;;;;10.65;4.55;;;;;;;-3.93;100.00;101897.97;6375181;27;20121;-73
2022/12/20 00:11:47;;;;;;;12.35;5.15;;;;;;;-3.93;100.00;101904.72;6373775;27;20172;-73
2022/12/20 00:14:48;;;;;;;7.53;4.22;;;;;;;-3.93;100.00;101903.06;6356284;27;20107;-73
2022/12/20 00:17:49;;;;;;;14.05;5.50;;;;;;;-3.95;100.00;101898.75;6373724;27;20039;-73
2022/12/20 00:20:57;;;;;;;20.70;5.07;;;;;;;-3.99;100.00;101891.84;6373480;27;20043;-73
2022/12/20 00:23:59;;;;;;;6.63;4.43;;;;;;;-3.94;100.00;101892.81;6373378;27;20134;-73
2022/12/20 00:27:01;;;;;;;16.85;4.50;;;;;;;-3.91;100.00;101888.69;6374558;27;20475;-73
2022/12/20 00:30:06;;;;;;;6.03;4.30;;;;;;;-3.95;100.00;101893.66;6373319;27;20043;-73
2022/12/20 00:33:07;;;;;;;8.82;5.03;;;;;;;-3.89;100.00;101883.59;6374236;27;20264;-73
2022/12/20 00:36:10;;;;;;;8.77;4.70;;;;;;;-3.87;100.00;101877.72;6374488;27;20039;-73
2022/12/20 00:39:11;;;;;;;20.20;7.55;;;;;;;-3.87;100.00;101881.94;6372954;27;20384;-73
2022/12/20 00:42:11;;;;;;;19.73;5.90;;;;;;;-3.93;100.00;101880.13;6355761;27;20493;-73
2022/12/20 00:45:12;;;;;;;9.48;5.22;;;;;;;-3.95;100.00;101875.81;6374272;27;20047;-72
2022/12/20 00:48:13;;;;;;;9.30;4.50;;;;;;;-3.94;100.00;101878.38;6372879;27;20547;-73
2022/12/20 00:51:19;;;;;;;19.17;5.60;;;;;;;-3.91;100.00;101883.56;6373950;27;20126;-73
2022/12/20 00:54:20;;;;;;;9.00;4.68;;;;;;;-3.90;100.00;101876.78;6373993;27;20071;-73
2022/12/20 00:57:23;;;;;;;20.70;4.72;;;;;;;-3.90;100.00;101874.22;6374013;27;20039;-73
2022/12/20 01:00:24;;;;;;;8.38;3.80;;;;;;;-3.96;100.00;101856.22;6355272;27;20046;-73
2022/12/20 01:03:28;;;;;;;11.75;3.92;;;;;;;-3.93;100.00;101867.38;6373866;27;20103;-73
2022/12/20 01:06:30;;;;;;;7.43;3.85;;;;;;;-3.91;100.00;101867.38;6372514;27;20092;-73
2022/12/20 01:09:33;;;;;;;8.67;5.23;;;;;;;-3.89;100.00;101863.19;6373815;27;20046;-73
2022/12/20 01:12:36;;;;;;;15.50;5.38;;;;;;;-3.85;100.00;101859.91;6372172;27;20283;-73
2022/12/20 01:15:39;;;;;;;13.27;4.10;;;;;;;-3.88;100.00;101857.28;6373531;27;20043;-73
2022/12/20 01:18:42;;;;;;;8.30;4.32;;;;;;;-3.86;100.00;101853.09;6355014;27;20107;-73
2022/12/20 01:21:44;;;;;;;10.65;5.05;;;;;;;-3.85;100.00;101857.34;6373260;27;20042;-73
2022/12/20 01:24:45;;;;;;;9.80;5.38;;;;;;;-3.83;100.00;101849.75;6354901;27;20513;-73
2022/12/20 01:27:45;;;;;;;11.55;4.45;;;;;;;-3.80;100.00;101853.25;6354669;27;20054;-73
2022/12/20 01:30:46;;;;;;;7.45;5.18;;;;;;;-3.74;100.00;101850.00;6373188;27;20039;-73
2022/12/20 01:33:48;;;;;;;10.23;5.60;;;;;;;-3.74;100.00;101847.44;6371919;27;20074;-73
2022/12/20 01:36:49;;;;;;;8.23;4.90;;;;;;;-3.78;100.00;101843.09;6372967;27;20040;-73
2022/12/20 01:39:50;;;;;;;7.80;3.80;;;;;;;-3.82;100.00;101836.19;6373002;27;20066;-73
2022/12/20 01:42:52;;;;;;;12.52;5.50;;;;;;;-3.78;100.00;101835.44;6371570;27;20052;-73
2022/12/20 01:45:52;;;;;;;12.43;4.40;;;;;;;-3.80;100.00;101830.28;6370674;27;20039;-72
2022/12/20 01:49:10;;;;;;;9.60;4.78;;;;;;;-3.83;100.00;101825.09;6371334;27;20122;-73
2022/12/20 01:52:21;;;;;;;9.85;4.45;;;;;;;-3.89;100.00;101824.94;6371360;27;20043;-73
2022/12/20 01:55:26;;;;;;;5.50;4.20;;;;;;;-3.89;100.00;101824.94;6371253;27;20043;-73
2022/12/20 01:58:27;;;;;;;8.43;4.60;;;;;;;-3.88;100.00;101821.56;6354113;27;20487;-72
2022/12/20 02:01:28;;;;;;;15.35;6.05;;;;;;;-3.86;100.00;101818.22;6371183;27;20150;-74
2022/12/20 02:04:29;;;;;;;5.47;4.13;;;;;;;-3.83;100.00;101806.38;6371009;27;20396;-72
2022/12/20 02:07:33;;;;;;;16.52;6.90;;;;;;;-3.73;100.00;101805.78;6370940;27;20066;-73
2022/12/20 02:11:14;;;;;;;6.10;3.72;;;;;;;-3.65;100.00;101804.31;6372105;27;20035;-73
2022/12/20 02:14:39;;;;;;;7.32;3.38;;;;;;;-3.60;100.00;101792.53;6371919;27;20104;-73
2022/12/20 02:17:54;;;;;;;7.97;3.50;;;;;;;-3.58;100.00;101796.00;6371928;27;20050;-73
2022/12/20 02:21:13;;;;;;;9.38;4.78;;;;;;;-3.59;100.00;101791.69;6370619;27;20130;-73
2022/12/20 02:24:33;;;;;;;10.05;5.68;;;;;;;-3.47;100.00;101788.59;6370862;27;20071;-73
2022/12/20 02:27:44;;;;;;;8.68;2.75;;;;;;;-3.39;100.00;101781.13;6370487;27;20047;-73
2022/12/20 02:30:48;;;;;;;11.88;4.75;;;;;;;-3.33;100.00;101782.13;6370554;27;20448;-73
2022/12/20 02:33:54;;;;;;;10.52;5.07;;;;;;;-3.39;100.00;101776.88;6371651;27;20126;-73
2022/12/20 02:36:55;;;;;;;8.93;4.13;;;;;;;-3.42;100.00;101781.03;6372120;27;20122;-73
2022/12/20 02:39:56;;;;;;;7.53;5.03;;;;;;;-3.37;100.00;101771.81;6370441;27;20114;-73
2022/12/20 02:43:01;;;;;;;9.05;6.03;;;;;;;-3.34;100.00;101770.19;6370236;27;20043;-73
2022/12/20 02:46:03;;;;;;;9.82;5.07;;;;;;;-3.30;100.00;101769.41;6370385;27;20043;-73
2022/12/20 02:49:15;;;;;;;7.60;3.75;;;;;;;-3.29;100.00;101757.53;6371299;27;20062;-73
2022/12/20 02:52:19;;;;;;;12.90;5.28;;;;;;;-3.28;100.00;101760.09;6370122;27;20062;-73
2022/12/20 02:55:32;;;;;;;9.77;4.65;;;;;;;-3.23;100.00;101760.25;6371307;27;20452;-73
2022/12/20 02:58:37;;;;;;;;;;;;;;;-3.14;100.00;101762.13;6371664;27;20080;-73
2022/12/20 03:01:47;;;;;;;14.27;4.97;;;;;;;-3.15;100.00;101768.06;6371203;27;20282;-73
2022/12/20 03:04:48;;;;;;;19.75;5.38;;;;;;;-3.20;100.00;101754.34;6370066;28;20036;-73
2022/12/20 03:07:49;;;;;;;20.50;5.90;;;;;;;-3.09;100.00;101755.41;6371017;27;20042;-73
2022/12/20 03:10:52;;;;;;;8.63;4.15;;;;;;;-3.05;100.00;101760.66;6371209;27;20046;-73
2022/12/20 03:13:52;;;;;;;8.85;5.60;;;;;;;-3.09;100.00;101761.41;6370842;27;20126;-73
2022/12/20 03:16:53;;;;;;;8.57;4.38;;;;;;;-3.03;100.00;101755.56;6369816;28;20517;-73
2022/12/20 03:19:54;;;;;;;15.68;5.05;;;;;;;-2.97;100.00;101762.50;6369861;28;20046;-73
2022/12/20 03:22:55;;;;;;;10.95;4.78;;;;;;;-2.96;100.00;101752.31;6370987;27;20208;-73
2022/12/20 03:25:55;;;;;;;8.20;3.67;;;;;;;-3.04;100.00;101741.94;6352646;28;20201;-73
2022/12/20 03:28:56;;;;;;;10.75;4.18;;;;;;;-2.95;100.00;101756.59;6370894;27;20104;-73
2022/12/20 03:31:57;;;;;;;11.90;6.15;;;;;;;-3.02;100.00;101746.22;6352571;28;20051;-73
2022/12/20 03:35:01;;;;;;;13.55;6.22;;;;;;;-2.97;100.00;101754.84;6370781;27;20165;-74
2022/12/20 03:38:02;;;;;;;15.45;5.60;;;;;;;-2.98;100.00;101751.44;6369596;28;20060;-74
2022/12/20 03:41:03;;;;;;;9.32;5.45;;;;;;;-2.95;100.00;101754.03;6370757;27;20488;-73
2022/12/20 03:44:04;;;;;;;5.70;3.85;;;;;;;-3.01;100.00;101743.69;6369488;28;20039;-74
2022/12/20 03:47:04;;;;;;;15.48;4.18;;;;;;;-2.93;100.00;101754.06;6370738;27;20535;-73
2022/12/20 03:50:06;;;;;;;8.30;4.88;;;;;;;-2.94;100.00;101748.09;6369793;28;20046;-73
2022/12/20 03:53:07;;;;;;;12.68;5.93;;;;;;;-2.85;100.00;101744.88;6369503;28;20109;-73
2022/12/20 03:56:08;;;;;;;10.45;5.28;;;;;;;-2.83;100.00;101741.53;6370564;28;20036;-73
2022/12/20 03:59:11;;;;;;;12.95;6.10;;;;;;;-2.75;100.00;101745.94;6369384;28;20039;-74
2022/12/20 04:02:12;;;;;;;5.82;5.18;;;;;;;-2.66;100.00;101741.00;6369106;28;20180;-73
2022/12/20 04:05:12;;;;;;;12.23;4.75;;;;;;;-2.65;100.00;101742.75;6369277;28;20039;-73
2022/12/20 04:08:15;;;;;;;10.80;5.40;;;;;;;-2.66;100.00;101735.91;6369125;27;20117;-73
2022/12/20 04:11:18;;;;;;;20.10;7.85;;;;;;;-2.69;100.00;101733.28;6375047;27;20035;-73
2022/12/20 04:14:19;;;;;;;20.65;5.18;;;;;;;-2.74;100.00;101729.75;6374633;27;20120;-73
2022/12/20 04:17:20;;;;;;;6.63;4.63;;;;;;;-2.66;100.00;101725.66;6374901;27;20475;-73
2022/12/20 04:20:23;;;;;;;9.02;4.82;;;;;;;-2.60;100.00;101732.59;6373604;27;20050;-73
2022/12/20 04:23:24;;;;;;;15.70;4.93;;;;;;;-2.60;100.00;101727.50;6373534;27;20039;-74
2022/12/20 04:26:25;;;;;;;6.60;3.95;;;;;;;-2.62;100.00;101735.13;6374852;27;20035;-74
2022/12/20 04:29:26;;;;;;;16.80;5.50;;;;;;;-2.60;100.00;101730.06;6373364;27;20039;-73
2022/12/20 04:32:27;;;;;;;8.85;4.32;;;;;;;-2.61;100.00;101720.66;6373484;27;20050;-73
2022/12/20 04:35:28;;;;;;;6.78;4.30;;;;;;;-2.60;100.00;101725.78;6373180;27;20035;-73
2022/12/20 04:38:28;;;;;;;10.95;4.40;;;;;;;-2.64;100.00;101729.13;6374688;27;20035;-74
2022/12/20 04:41:29;;;;;;;6.90;4.55;;;;;;;-2.66;100.00;101731.66;6355952;27;20051;-73
2022/12/20 04:44:30;;;;;;;11.75;3.92;;;;;;;-2.69;100.00;101726.47;6355809;27;20054;-74
2022/12/20 04:47:31;;;;;;;9.18;3.65;;;;;;;-2.68;100.00;101733.34;6373126;27;20035;-73
2022/12/20 04:50:34;;;;;;;8.00;5.35;;;;;;;-2.62;100.00;101745.34;6375370;27;20035;-74
2022/12/20 04:53:49;;;;;;;8.85;5.65;;;;;;;-2.58;100.00;101736.91;6371677;27;20092;-73
2022/12/20 04:56:50;;;;;;;9.63;4.43;;;;;;;-2.65;100.00;101733.38;6357530;27;20055;-74
2022/12/20 04:59:51;;;;;;;11.82;3.88;;;;;;;-2.67;100.00;101723.97;6349529;28;20044;-74
2022/12/20 05:02:51;;;;;;;7.00;3.72;;;;;;;-2.65;100.00;101727.41;6349607;28;20066;-74
2022/12/20 05:05:52;;;;;;;20.60;8.13;;;;;;;-2.71;100.00;101720.47;6349420;28;20114;-73
2022/12/20 05:08:55;;;;;;;17.23;9.32;;;;;;;-2.71;100.00;101717.06;6348152;28;20047;-74
2022/12/20 05:11:56;;;;;;;8.90;5.50;;;;;;;-2.76;100.00;101722.09;6365132;27;20044;-74
2022/12/20 05:14:58;;;;;;;13.25;5.15;;;;;;;-2.76;100.00;101711.00;6347871;28;20399;-73
2022/12/20 05:17:59;;;;;;;7.28;4.07;;;;;;;-2.73;100.00;101719.59;6353169;27;20040;-74
2022/12/20 05:27:40;;;;;;;14.18;5.38;;;;;;;-2.65;100.00;101712.94;6373360;27;20045;-73
2022/12/20 05:30:41;;;;;;;26.20;7.10;;;;;;;-2.66;100.00;101701.00;6355008;27;20039;-73
2022/12/20 05:33:42;;;;;;;5.63;4.07;;;;;;;-2.59;100.00;101708.75;6369487;27;20040;-73
2022/12/20 05:36:43;;;;;;;6.85;4.43;;;;;;;-2.55;100.00;101708.00;6347714;28;20043;-73
2022/12/20 05:39:43;;;;;;;20.63;6.18;;;;;;;-2.54;100.00;101702.91;6353666;27;20040;-74
2022/12/20 05:42:44;;;;;;;12.27;5.72;;;;;;;-2.49;100.00;101698.75;6384978;27;20048;-75
2022/12/20 05:45:47;;;;;;;8.20;5.22;;;;;;;-2.48;100.00;101704.72;6371225;27;20115;-73
2022/12/20 05:48:47;;;;;;;;;;;;;;;-2.45;100.00;101694.53;6372740;27;20047;-73
2022/12/20 05:51:48;;;;;;;9.80;4.60;;;;;;;-2.45;100.00;101695.44;6372217;27;19972;-74
2022/12/20 05:54:49;;;;;;;10.65;4.90;;;;;;;-2.44;100.00;101698.84;6371960;27;20118;-75
2022/12/20 05:57:52;;;;;;;7.32;3.63;;;;;;;-2.44;100.00;101699.69;6370821;27;20036;-73
2022/12/20 06:00:55;;;;;;;4.50;2.85;;;;;;;-2.44;100.00;101698.84;6372306;27;20039;-74
2022/12/20 06:03:55;;;;;;;8.60;5.65;;;;;;;-2.44;100.00;101697.16;6371083;27;20502;-73
2022/12/20 06:06:56;;;;;;;7.65;3.40;;;;;;;-2.41;100.00;101691.22;6371015;27;20047;-73
2022/12/20 06:09:57;;;;;;;12.77;5.55;;;;;;;-2.47;100.00;101681.75;6372443;27;20067;-74
2022/12/20 06:12:58;;;;;;;6.50;3.72;;;;;;;-2.42;100.00;101686.09;6370544;27;20065;-74
2022/12/20 06:15:59;;;;;;;7.90;4.32;;;;;;;-2.44;100.00;101683.50;6370658;27;20046;-74
2022/12/20 06:19:01;;;;;;;8.70;5.43;;;;;;;-2.44;100.00;101683.50;6372123;27;20118;-73
2022/12/20 06:22:02;;;;;;;7.17;4.30;;;;;;;-2.40;100.00;101677.63;6353439;27;20067;-74
2022/12/20 06:25:04;;;;;;;18.55;5.28;;;;;;;-2.55;100.00;101685.88;6372251;27;20038;-74
2022/12/20 06:28:06;;;;;;;6.78;4.60;;;;;;;-2.53;100.00;101686.75;6353357;27;20108;-74
2022/12/20 06:31:11;;;;;;;6.63;4.30;;;;;;;-2.52;100.00;101685.06;6371377;27;20475;-74
2022/12/20 06:34:12;;;;;;;10.35;4.90;;;;;;;-2.50;100.00;101675.72;6353125;27;20061;-74
2022/12/20 06:37:13;;;;;;;5.88;4.32;;;;;;;-2.52;100.00;101683.34;6353366;27;20067;-74
2022/12/20 06:40:15;;;;;;;4.35;3.38;;;;;;;-2.51;100.00;101677.44;6371476;27;20544;-74
2022/12/20 06:43:16;;;;;;;7.90;5.35;;;;;;;-2.46;100.00;101677.50;6404981;27;20035;-73
2022/12/20 06:46:17;;;;;;;10.82;3.95;;;;;;;-2.46;100.00;101677.50;6369845;27;20057;-74
2022/12/20 06:49:26;;;;;;;10.57;4.55;;;;;;;-2.48;100.00;101682.59;6353190;27;20043;-74
2022/12/20 06:52:27;;;;;;;12.23;4.25;;;;;;;-2.42;100.00;101674.16;6370206;27;20039;-74
2022/12/20 06:55:27;;;;;;;5.35;4.15;;;;;;;-2.36;100.00;101683.66;6370026;27;20518;-74
2022/12/20 06:58:28;;;;;;;7.88;4.93;;;;;;;-2.34;100.00;101667.50;6371323;27;20050;-74
2022/12/20 07:01:29;;;;;;;21.08;7.68;;;;;;;-2.23;100.00;101670.25;6370009;27;20478;-74
2022/12/20 07:04:33;;;;;;;19.70;10.00;;;;;;;-2.28;100.00;101662.50;6369796;27;20078;-74
2022/12/20 07:07:49;;;;;;;20.95;10.27;;;;;;;-2.20;100.00;101670.31;6371373;27;20039;-74
2022/12/20 07:10:55;;;;;;;13.80;8.25;;;;;;;-2.09;100.00;101667.94;6371144;27;20103;-74
2022/12/20 07:13:58;;;;;;;12.20;7.63;;;;;;;-2.09;100.00;101663.66;6369710;28;20047;-74
2022/12/20 07:16:59;;;;;;;10.90;5.63;;;;;;;-1.98;100.00;101668.94;6404337;27;20501;-74
2022/12/20 07:20:00;;;;;;;11.98;4.35;;;;;;;-1.91;100.00;101672.50;6371004;27;20483;-74
2022/12/20 07:23:03;;;;;;;9.00;6.43;;;;;;;-1.91;100.00;101678.47;6370978;27;20391;-74
2022/12/20 07:26:04;;;;;;;10.93;5.40;;;;;;;-1.83;100.00;101669.22;6370852;27;20078;-74
2022/12/20 07:29:05;;;;;;;11.48;5.35;;;;;;;-1.72;99.15;101678.75;6370921;28;20039;-74
2022/12/20 07:32:06;;;;;;;12.75;5.35;;;;;;;-1.58;99.33;101681.53;6369757;28;20050;-74
2022/12/20 07:35:09;;;;;;;10.98;6.30;;;;;;;-1.46;99.09;101679.16;6352676;28;20047;-73
2022/12/20 07:38:13;;;;;;;13.05;6.30;;;;;;;-1.40;99.51;101674.13;6370817;27;20483;-73
2022/12/20 07:41:16;;;;;;;9.20;5.47;;;;;;;-1.34;97.85;101673.31;6370790;27;20479;-73
2022/12/20 07:44:17;;;;;;;13.02;6.68;;;;;;;-1.30;97.69;101662.28;6370970;27;20031;-73
2022/12/20 07:47:20;;;;;;;10.73;5.30;;;;;;;-1.22;97.74;101655.56;6375030;27;20046;-73
2022/12/20 07:50:21;;;;;;;6.28;3.83;;;;;;;-1.08;96.77;101654.03;6363123;27;20031;-73
2022/12/20 07:53:25;;;;;;;13.77;5.78;;;;;;;-1.01;95.79;101654.97;6375141;27;20114;-73
2022/12/20 07:56:28;;;;;;;10.73;5.20;;;;;;;-0.86;95.20;101655.16;6374224;27;20047;-73
2022/12/20 07:59:56;;;;;;;15.68;5.35;;;;;;;-0.78;94.05;101657.81;6374289;27;20249;-75
2022/12/20 08:03:22;;;;;;;18.75;6.00;;;;;;;-0.78;94.77;101662.06;6375328;27;20112;-73
2022/12/20 08:06:23;;;;;;;10.00;3.72;;;;;;;-0.68;93.97;101663.88;6364910;27;20095;-74
2022/12/20 08:09:27;;;;;;;10.52;5.00;;;;;;;-0.61;92.77;101650.31;6369657;27;20467;-74
2022/12/20 08:12:32;;;;;;;15.07;4.70;;;;;;;-0.58;91.78;101645.19;6365751;27;20510;-74
2022/12/20 08:15:34;;;;;;;10.27;4.15;;;;;;;-0.51;91.70;101652.13;6356607;27;20069;-74
2022/12/20 08:18:35;;;;;;;9.68;4.75;;;;;;;-0.36;91.93;101653.13;6330984;28;20410;-73
2022/12/20 08:21:36;;;;;;;11.55;3.25;;;;;;;-0.31;90.45;101657.47;6346876;28;20050;-73
2022/12/20 08:24:39;;;;;;;6.60;4.80;;;;;;;-0.25;90.33;101644.69;6347578;28;20038;-72
2022/12/20 08:27:40;;;;;;;20.30;6.53;;;;;;;-0.06;89.84;101648.25;6347277;28;20148;-74
2022/12/20 08:30:41;;;;;;;13.48;4.43;;;;;;;0.22;88.03;101645.91;6348616;28;20044;-74
2022/12/20 08:33:44;;;;;;;11.25;5.13;;;;;;;0.37;87.52;101640.00;6347662;28;20334;-74
2022/12/20 08:36:44;;;;;;;10.07;5.03;;;;;;;0.43;87.04;101641.75;6348906;28;20342;-74
2022/12/20 08:39:45;;;;;;;8.95;4.57;;;;;;;0.77;86.56;101637.66;6347867;28;20548;-72
2022/12/20 08:42:46;;;;;;;6.93;4.00;;;;;;;0.98;81.61;101635.19;6348989;28;20055;-72
2022/12/20 08:45:54;;;;;;;9.00;4.95;;;;;;;1.10;81.70;101633.53;6348610;28;20506;-72
2022/12/20 08:48:55;;;;;;;14.48;6.82;;;;;;;1.10;81.63;101620.66;6347371;28;20036;-72
2022/12/20 08:51:56;;;;;;;19.02;7.22;;;;;;;0.98;81.59;101606.06;6347396;28;20127;-72
2022/12/20 08:54:57;;;;;;;18.65;9.27;;;;;;;1.03;82.31;101598.34;6346813;28;20046;-72
2022/12/20 08:57:58;;;;;;;16.10;6.32;;;;;;;1.17;80.47;101591.53;6366980;27;20039;-72
2022/12/20 09:01:00;;;;;;;11.00;6.28;;;;;;;1.37;80.04;101600.16;6373890;27;20050;-72
2022/12/20 09:04:02;;;;;;;21.90;6.72;;;;;;;1.32;80.73;101598.41;6372574;27;20050;-72
2022/12/20 09:07:03;;;;;;;10.05;5.97;;;;;;;1.45;83.05;101583.88;6373657;27;20039;-72
2022/12/20 09:10:07;;;;;;;10.75;4.60;;;;;;;1.42;84.15;101592.44;6372250;27;20491;-75
2022/12/20 09:13:09;;;;;;;8.98;4.85;;;;;;;1.34;82.38;101595.00;6372123;27;20514;-75
2022/12/20 09:16:16;;;;;;;8.55;4.65;;;;;;;1.50;81.53;101589.88;6372462;27;20039;-75
2022/12/20 09:19:16;;;;;;;9.07;4.25;;;;;;;1.70;81.96;101592.47;6373490;27;20046;-75
2022/12/20 09:22:17;;;;;;;13.63;5.90;;;;;;;1.62;81.00;101587.31;6372111;27;20464;-75
2022/12/20 09:25:20;;;;;;;8.93;4.10;;;;;;;1.94;77.97;101578.75;6372061;27;20051;-75
2022/12/20 09:28:22;;;;;;;9.18;4.75;;;;;;;2.15;75.11;101573.53;6371276;27;20141;-75
2022/12/20 09:31:24;;;;;;;17.88;5.60;;;;;;;2.48;74.45;101565.75;6371510;27;20102;-75
2022/12/20 09:34:25;;;;;;;;;;;;;;;2.49;75.64;101570.00;6371668;27;20110;-75
2022/12/20 09:37:30;;;;;;;13.70;3.83;;;;;;;2.50;73.28;101562.28;6372437;27;19919;-75
2022/12/20 09:40:37;;;;;;;9.93;3.67;;;;;;;2.44;71.92;101559.72;6346273;28;20120;-75
2022/12/20 09:43:39;;;;;;;9.75;4.55;;;;;;;2.64;70.82;101559.66;6363101;27;20051;-74
2022/12/20 09:46:40;;;;;;;14.93;4.90;;;;;;;2.50;70.09;101553.72;6369497;27;20039;-75
2022/12/20 09:49:44;;;;;;;11.80;5.63;;;;;;;2.62;70.16;101563.97;6372618;27;20114;-75
2022/12/20 09:53:11;;;;;;;9.55;3.90;;;;;;;2.81;69.26;101560.44;6371447;27;20054;-75
2022/12/20 09:56:19;;;;;;;8.38;4.20;;;;;;;2.48;69.46;101553.72;6372721;27;20042;-75
2022/12/20 09:59:20;;;;;;;10.20;4.93;;;;;;;2.58;70.61;101542.50;6354231;27;20134;-75
2022/12/20 10:02:24;;;;;;;9.93;5.30;;;;;;;2.41;70.42;101545.16;6371080;27;20108;-75
2022/12/20 10:05:31;;;;;;;8.27;4.65;;;;;;;2.61;68.44;101533.88;6372398;27;20043;-75
2022/12/20 10:08:41;;;;;;;10.80;5.55;;;;;;;2.94;67.39;101535.44;6370349;27;20043;-75
2022/12/20 10:11:57;;;;;;;9.68;3.65;;;;;;;2.77;66.79;101524.38;6371011;27;20501;-75
2022/12/20 10:15:18;;;;;;;7.78;4.57;;;;;;;2.85;64.76;101524.34;6370953;27;20147;-75
2022/12/20 10:18:40;;;;;;;13.05;4.63;;;;;;;2.92;66.07;101526.00;6370895;27;20070;-75
2022/12/20 10:21:58;;;;;;;11.68;5.05;;;;;;;3.15;64.98;101521.56;6353638;27;20050;-75
2022/12/20 10:25:21;;;;;;;10.20;4.60;;;;;;;3.42;63.47;101517.06;6370862;27;20096;-75
2022/12/20 10:28:29;;;;;;;6.90;4.30;;;;;;;3.48;63.86;101514.44;6370207;27;20487;-75
2022/12/20 10:31:33;;;;;;;6.63;4.55;;;;;;;3.31;62.04;101504.22;6370093;27;20063;-75
2022/12/20 10:34:36;;;;;;;8.30;4.05;;;;;;;3.28;62.59;101491.38;6370658;27;20099;-75
2022/12/20 10:37:37;;;;;;;7.32;4.57;;;;;;;3.37;62.68;101486.13;6369481;27;20081;-73
2022/12/20 10:40:44;;;;;;;18.60;5.32;;;;;;;3.70;63.28;101484.13;6370519;27;20043;-73
2022/12/20 10:43:50;;;;;;;13.68;5.72;;;;;;;4.02;61.38;101488.09;6369820;27;20051;-72
2022/12/20 10:46:53;;;;;;;8.80;3.92;;;;;;;4.18;61.78;101476.72;6370121;27;20042;-73
2022/12/20 10:50:07;;;;;;;11.00;4.90;;;;;;;4.43;58.60;101476.44;6371450;27;20046;-72
2022/12/20 10:53:08;;;;;;;7.22;3.63;;;;;;;3.99;58.09;101480.38;6371351;27;20081;-75
2022/12/20 10:56:19;;;;;;;5.10;2.40;;;;;;;4.20;55.72;101464.66;6370143;27;20046;-75
2022/12/20 10:59:20;;;;;;;8.48;2.63;;;;;;;4.27;55.41;101454.25;6371128;27;20043;-75
2022/12/20 11:02:25;;;;;;;3.95;2.47;;;;;;;4.08;54.00;101458.75;6371185;27;20070;-74
2022/12/20 11:05:26;;;;;;;5.18;2.17;;;;;;;3.87;54.14;101455.56;6371116;27;20043;-72
2022/12/20 11:08:29;;;;;;;3.58;2.03;;;;;;;4.09;55.20;101450.13;6371214;28;20118;-73
2022/12/20 11:11:30;;;;;;;4.78;2.50;;;;;;;4.18;54.66;101445.72;6369782;28;20057;-73
2022/12/20 11:14:33;;;;;;;5.47;2.78;;;;;;;4.28;55.54;101432.69;6369690;28;20526;-73
2022/12/20 11:17:47;;;;;;;8.05;3.20;;;;;;;4.36;54.95;101431.69;6370225;27;20141;-73
2022/12/20 11:21:14;;;;;;;16.00;5.43;;;;;;;4.54;55.26;101407.34;6374762;27;20129;-75
2022/12/20 11:24:34;;;;;;;13.32;4.50;;;;;;;4.80;56.31;101406.09;6374718;27;20590;-75
2022/12/20 11:27:43;;;;;;;6.32;3.42;;;;;;;4.82;55.31;101402.59;6370426;27;20046;-75
2022/12/20 11:30:53;;;;;;;7.80;3.28;;;;;;;4.48;54.94;101404.00;6358106;27;20039;-75
2022/12/20 11:34:52;;;;;;;7.60;2.50;;;;;;;4.71;53.47;101395.88;6332611;28;20044;-74
2022/12/20 11:38:11;;;;;;;4.75;1.92;;;;;;;4.85;54.34;101389.63;6286706;27;20513;-73
2022/12/20 11:41:12;;;;;;;4.43;2.10;;;;;;;4.92;53.06;101380.06;6372274;27;20487;-74
2022/12/20 11:44:42;;;;;;;3.28;1.75;;;;;;;4.85;52.60;101379.28;6375782;27;20088;-74
2022/12/20 11:48:08;;;;;;;6.40;2.33;;;;;;;4.42;53.63;101373.91;6374476;27;20051;-76
2022/12/20 11:51:23;;;;;;;5.70;2.08;;;;;;;4.50;54.43;101378.97;6374316;27;20039;-75
2022/12/20 11:54:32;;;;;;;4.95;2.47;;;;;;;4.68;56.56;101383.03;6375214;27;20039;-76
2022/12/20 11:57:48;;;;;;;3.53;2.20;;;;;;;5.01;55.36;101379.03;6355346;27;20043;-76
2022/12/20 12:00:58;;;;;;;10.43;2.10;;;;;;;4.93;53.05;101367.97;6354481;27;20051;-75
2022/12/20 12:04:17;;;;;;;4.80;2.33;;;;;;;4.84;53.81;101371.56;6375458;27;20087;-75
2022/12/20 12:07:25;;;;;;;6.78;2.20;;;;;;;4.99;53.29;101373.03;6356942;27;20074;-76
2022/12/20 12:10:32;;;;;;;6.50;2.80;;;;;;;4.83;50.80;101362.91;6369859;27;20056;-76
2022/12/20 12:13:38;;;;;;;3.35;2.15;;;;;;;5.07;54.35;101344.44;6365470;27;20075;-76
2022/12/20 12:16:44;;;;;;;5.10;2.83;;;;;;;5.15;49.45;101350.34;6347438;28;20040;-76
2022/12/20 12:19:49;;;;;;;4.05;2.17;;;;;;;5.14;51.46;101346.88;6348271;28;20063;-76
2022/12/20 12:22:58;;;;;;;4.18;2.00;;;;;;;5.20;52.11;101344.19;6348177;28;20039;-76
2022/12/20 12:26:04;;;;;;;6.55;2.40;;;;;;;5.40;51.59;101355.91;6348214;28;20595;-76
2022/12/20 12:29:08;;;;;;;4.82;3.05;;;;;;;5.06;48.88;101351.34;6347570;27;20542;-76
2022/12/20 12:32:14;;;;;;;5.03;2.88;;;;;;;4.95;54.38;101343.78;6359875;27;20101;-76
2022/12/20 12:35:18;;;;;;;7.43;3.58;;;;;;;4.97;51.99;101348.94;6370166;27;20035;-76
2022/12/20 12:38:40;;;;;;;12.85;3.55;;;;;;;4.89;50.01;101351.63;6373284;27;20039;-75
2022/12/20 12:41:50;;;;;;;8.10;4.18;;;;;;;4.54;52.63;101353.03;6355067;27;20095;-76
2022/12/20 12:44:58;;;;;;;8.57;3.45;;;;;;;4.44;51.76;101334.22;6371682;27;20042;-76
2022/12/20 12:48:42;;;;;;;5.60;3.15;;;;;;;4.34;52.45;101340.41;6373649;27;20043;-76
2022/12/20 12:51:51;;;;;;;4.97;3.20;;;;;;;4.05;53.80;101330.50;6333182;27;20427;-76
2022/12/20 12:54:54;;;;;;;4.60;2.60;;;;;;;3.97;54.02;101322.84;6369030;27;20084;-76
2022/12/20 12:58:32;;;;;;;10.65;4.13;;;;;;;3.87;55.14;101316.13;6373595;27;20031;-76
2022/12/20 13:01:42;;;;;;;5.53;2.78;;;;;;;3.88;55.19;101312.66;6389128;27;20054;-76
2022/12/20 13:05:04;;;;;;;4.93;2.58;;;;;;;3.94;57.36;101314.31;6355098;27;20108;-76
2022/12/20 13:08:15;;;;;;;5.93;2.63;;;;;;;3.95;55.61;101311.69;6348359;28;20127;-76
2022/12/20 13:11:28;;;;;;;4.32;2.53;;;;;;;3.87;55.17;101316.13;6346854;28;20047;-76
2022/12/20 13:14:29;;;;;;;4.05;2.72;;;;;;;3.97;55.22;101309.94;6348470;28;20105;-76
2022/12/20 13:17:29;;;;;;;6.05;3.50;;;;;;;3.95;56.49;101309.09;6348645;28;20095;-75
2022/12/20 13:20:36;;;;;;;8.18;3.13;;;;;;;3.80;55.78;101305.00;6350826;27;20491;-77
2022/12/20 13:23:37;;;;;;;8.60;4.55;;;;;;;3.68;62.75;101300.00;6372403;27;20046;-75
2022/12/20 13:26:50;;;;;;;10.85;6.10;;;;;;;3.66;66.10;101306.06;6372518;27;20465;-76
2022/12/20 13:29:54;;;;;;;9.40;4.28;;;;;;;3.51;70.03;101317.41;6373556;27;20152;-75
2022/12/20 13:33:15;;;;;;;8.90;3.78;;;;;;;3.31;71.17;101326.22;6373514;27;20317;-76
2022/12/20 13:36:16;;;;;;;9.05;4.25;;;;;;;3.31;73.37;101317.63;6370862;27;20035;-76
2022/12/20 13:39:20;;;;;;;8.18;5.75;;;;;;;3.15;75.35;101327.25;6370997;27;20050;-76
2022/12/20 13:42:33;;;;;;;9.93;4.90;;;;;;;3.13;76.23;101308.34;6370538;27;20039;-76
2022/12/20 13:45:37;;;;;;;9.30;5.32;;;;;;;3.02;78.15;101311.06;6372246;27;20035;-76
2022/12/20 13:48:59;;;;;;;25.80;11.13;;;;;;;3.00;77.88;101297.31;6372025;27;20043;-76
2022/12/20 13:52:27;;;;;;;19.25;9.43;;;;;;;3.04;78.71;101301.56;6373234;27;20061;-74
2022/12/20 13:55:39;;;;;;;15.18;7.22;;;;;;;2.94;77.92;101297.38;6372891;27;20039;-74
2022/12/20 13:58:43;;;;;;;11.18;6.35;;;;;;;2.96;78.02;101303.38;6371474;27;20039;-74
2022/12/20 14:01:56;;;;;;;13.02;5.60;;;;;;;2.92;78.70;101293.97;6371547;27;20047;-74
2022/12/20 14:05:01;;;;;;;10.57;6.18;;;;;;;2.91;78.95;101284.53;6354096;27;20047;-74
2022/12/20 14:08:06;;;;;;;16.98;7.72;;;;;;;2.80;80.33;101285.47;6371165;27;20039;-73
2022/12/20 14:11:21;;;;;;;13.23;7.00;;;;;;;2.74;81.50;101284.66;6353849;27;20055;-75
2022/12/20 14:14:22;;;;;;;22.85;10.68;;;;;;;2.62;83.09;101281.34;6372206;27;20057;-75
2022/12/20 14:17:27;;;;;;;14.65;8.20;;;;;;;2.66;83.70;101281.28;6370792;27;20055;-76
2022/12/20 14:20:32;;;;;;;19.05;9.60;;;;;;;2.70;83.79;101267.50;6372213;27;20092;-75
2022/12/20 14:23:39;;;;;;;21.10;10.70;;;;;;;2.72;83.55;101271.81;6370812;27;20077;-76
2022/12/20 14:26:46;;;;;;;24.98;12.32;;;;;;;2.71;84.13;101267.50;6371006;27;20120;-76